< Typhoon 200314 2003 Season Typhoon 200316 >
Typhoon 200315 (CHOI-WAN)
General InformationTrack Information on Google MapsDetailed Wind InformationAccess Analytics MapList of All Images || NewsDisaster Info.WeblogResourceGoogle EarthGE AnimationAtom FeedGeoJSON
Detalied Best Track (Time Zone = UTC)
Year Month Day Hour Lat. Long. Pressure (hPa) Wind (kt) Class Image Chart
2003 9 16 00 13.1 133.0 1004 0 2 Image Chart
2003 9 16 06 14.0 130.2 1004 0 2 Image Chart
2003 9 16 12 14.8 128.4 1002 0 2 Image Chart
2003 9 16 18 15.2 128.1 1000 0 2 Image Chart
2003 9 17 00 15.8 127.1 1000 0 2 Image Chart
2003 9 17 06 17.5 128.9 1000 0 2 Image Chart
2003 9 17 12 18.8 129.5 1000 0 2 Image Chart
2003 9 17 18 20.2 129.4 1000 0 2 Image Chart
2003 9 18 00 21.4 128.5 994 40 3 Image Chart
2003 9 18 06 21.8 128.3 990 45 3 Image Chart
2003 9 18 12 22.8 127.7 990 45 3 Image Chart
2003 9 18 15 23.2 127.5 990 45 3 Image Chart
2003 9 18 18 23.6 127.3 990 45 3 Image Chart
2003 9 18 21 24.1 127.3 990 45 3 Image Chart
2003 9 19 00 24.9 127.4 985 50 4 Image Chart
2003 9 19 03 25.4 127.7 985 50 4 Image Chart
2003 9 19 06 26.0 127.9 985 50 4 Image Chart
2003 9 19 08 26.5 128.2 985 50 4 Image Chart
2003 9 19 09 26.7 128.1 980 60 4 Image Chart
2003 9 19 12 27.0 128.2 980 60 4 Image Chart
2003 9 19 15 27.4 128.3 980 60 4 Image Chart
2003 9 19 18 27.7 128.7 975 60 4 Image Chart
2003 9 19 21 28.0 129.0 975 60 4 Image Chart
2003 9 19 22 28.1 129.2 975 60 4 Image Chart
2003 9 20 00 28.4 129.4 975 60 4 Image Chart
2003 9 20 03 28.6 130.1 975 60 4 Image Chart
2003 9 20 06 28.7 130.5 975 60 4 Image Chart
2003 9 20 09 28.8 131.2 975 60 4 Image Chart
2003 9 20 12 28.9 132.0 970 60 4 Image Chart
2003 9 20 15 29.2 132.8 970 65 5 Image Chart
2003 9 20 18 29.5 133.7 970 65 5 Image Chart
2003 9 20 21 29.8 134.7 965 70 5 Image Chart
2003 9 21 00 29.9 136.0 960 70 5 Image Chart
2003 9 21 03 30.5 136.3 960 70 5 Image Chart
2003 9 21 06 31.0 137.0 955 70 5 Image Chart
2003 9 21 09 31.6 138.0 955 70 5 Image Chart
2003 9 21 12 32.2 139.0 955 70 5 Image Chart
2003 9 21 15 32.7 140.0 955 70 5 Image Chart
2003 9 21 18 33.2 140.7 960 70 5 Image Chart
2003 9 21 21 33.8 142.1 960 70 5 Image Chart
2003 9 22 00 34.4 142.8 960 70 5 Image Chart
2003 9 22 03 35.1 143.8 965 70 5 Image Chart
2003 9 22 06 35.9 145.0 965 65 5 Image Chart
2003 9 22 12 37.7 147.6 980 55 4 Image Chart
2003 9 22 18 39.5 151.2 985 50 4 Image Chart
2003 9 23 00 41.0 156.0 994 0 6 Image Chart
2003 9 23 06 43.4 164.3 1000 0 6 Image Chart
2003 9 23 12 45.3 171.6 1000 0 6 Image Chart
2003 9 23 18 46.0 178.7 996 0 6 Image Chart
2003 9 24 00 47.0 184.5 994 0 6 Image Chart
Japan Meteorological Agency Best Track Data | Correction Date : 2004-02-17
< Typhoon 200314 2003 Season Typhoon 200316 >

Help